Time;durP1;ratioP1;P1;durP2;ratioP2;P2;SDS_P1;SDS_P2;PMS_P1;PMS_P2;Temp;Humidity;BMP_temperature;BMP_pressure;BME280_temperature;BME280_humidity;BME280_pressure;Samples;Min_cycle;Max_cycle;Signal;HPM_P1;HPM_P2
2023/04/28 00:00:28;;;;;;;8.40;2.90;;;;;;;8.87;45.43;99635.72;4361964;32;33230;-84
2023/04/28 00:02:55;;;;;;;7.72;3.33;;;;;;;8.89;45.60;99636.59;4369572;32;33527;-91
2023/04/28 00:05:23;;;;;;;7.70;3.05;;;;;;;8.85;45.07;99633.06;4359533;32;33959;-91
2023/04/28 00:07:51;;;;;;;6.37;3.03;;;;;;;8.66;45.55;99634.28;4362796;32;34723;-91
2023/04/28 00:10:19;;;;;;;7.75;3.47;;;;;;;8.74;46.08;99631.91;4351257;32;32109;-87
2023/04/28 00:12:47;;;;;;;8.00;3.30;;;;;;;8.64;47.47;99635.06;4367110;32;33453;-91
2023/04/28 00:15:14;;;;;;;10.10;3.25;;;;;;;8.64;46.30;99632.50;4355645;32;34088;-92
2023/04/28 00:17:43;;;;;;;7.93;3.17;;;;;;;8.47;46.40;99632.00;4361367;32;35154;-83
2023/04/28 00:20:11;;;;;;;6.37;3.17;;;;;;;8.71;45.35;99635.28;4360560;32;32947;-88
2023/04/28 00:22:38;;;;;;;8.63;3.17;;;;;;;8.51;45.87;99628.66;4362843;32;33681;-83
2023/04/28 00:25:07;;;;;;;4.97;2.60;;;;;;;8.59;45.51;99629.75;4365053;32;34877;-84
2023/04/28 00:27:35;;;;;;;7.32;3.00;;;;;;;8.59;45.37;99634.94;4363836;32;32774;-93
2023/04/28 00:30:03;;;;;;;8.25;3.22;;;;;;;8.59;45.28;99631.47;4358226;32;34491;-89
2023/04/28 00:32:32;;;;;;;8.57;4.15;;;;;;;8.76;44.72;99625.06;4349176;32;34134;-93
2023/04/28 00:35:00;;;;;;;9.45;4.62;;;;;;;8.54;45.83;99623.59;4367381;32;33672;-92
2023/04/28 00:37:27;;;;;;;9.43;5.20;;;;;;;8.48;46.60;99620.81;4371922;32;33881;-84
2023/04/28 00:39:55;;;;;;;9.77;5.75;;;;;;;8.56;46.24;99627.13;4351118;32;33828;-93
2023/04/28 00:42:34;;;;;;;13.05;7.60;;;;;;;8.76;45.71;99628.53;4357250;32;35124;-92
2023/04/28 00:45:05;;;;;;;13.52;7.85;;;;;;;8.66;46.54;99634.28;4363944;32;35002;-89
2023/04/28 00:47:33;;;;;;;14.45;9.10;;;;;;;8.58;46.96;99630.59;4371369;32;34597;-85
2023/04/28 00:50:05;;;;;;;17.73;9.90;;;;;;;8.44;47.98;99627.63;4363501;32;32977;-84
2023/04/28 00:52:33;;;;;;;17.92;9.55;;;;;;;8.72;47.58;99629.28;4351799;32;34649;-84
2023/04/28 00:55:01;;;;;;;17.95;10.93;;;;;;;8.62;47.88;99632.44;4354892;32;34699;-92
2023/04/28 00:57:30;;;;;;;19.92;11.52;;;;;;;8.51;48.65;99633.84;4353877;32;33831;-84
2023/04/28 00:59:59;;;;;;;17.00;10.57;;;;;;;8.69;47.71;99634.34;4361788;32;33227;-85
2023/04/28 01:02:28;;;;;;;19.60;11.12;;;;;;;8.53;48.23;99637.34;4358862;32;33343;-84
2023/04/28 01:04:57;;;;;;;23.70;9.52;;;;;;;8.58;48.03;99640.94;4356110;32;34125;-89
2023/04/28 01:07:24;;;;;;;17.60;8.98;;;;;;;8.43;48.33;99645.66;4361989;32;34017;-95
2023/04/28 01:09:52;;;;;;;12.77;9.25;;;;;;;8.41;48.31;99650.81;4374949;32;33293;-95
2023/04/28 01:12:20;;;;;;;14.68;8.45;;;;;;;8.49;48.18;99651.03;4368233;32;34396;-94
2023/04/28 01:14:48;;;;;;;16.42;8.75;;;;;;;8.45;47.95;99647.47;4369291;32;33998;-85
2023/04/28 01:17:16;;;;;;;17.98;9.15;;;;;;;8.50;47.57;99648.47;4362034;32;34079;-92
2023/04/28 01:19:44;;;;;;;17.12;9.20;;;;;;;8.51;47.60;99644.19;4351675;32;33658;-88
2023/04/28 01:22:14;;;;;;;15.15;8.73;;;;;;;8.36;47.77;99643.69;4350048;32;34040;-86
2023/04/28 01:24:42;;;;;;;14.57;8.35;;;;;;;8.38;47.66;99642.97;4362980;32;33697;-85
2023/04/28 01:27:10;;;;;;;15.90;9.07;;;;;;;8.39;47.84;99649.00;4365129;32;34276;-91
2023/04/28 01:29:38;;;;;;;16.45;9.45;;;;;;;8.20;48.23;99647.53;4364478;32;33381;-84
2023/04/28 01:32:06;;;;;;;19.55;9.20;;;;;;;8.25;48.38;99640.78;4369319;32;34377;-93
2023/04/28 01:34:34;;;;;;;16.98;9.60;;;;;;;8.22;48.80;99641.59;4348731;32;33629;-92
2023/04/28 01:37:04;;;;;;;16.40;10.80;;;;;;;8.12;49.21;99638.69;4350941;32;34105;-91
2023/04/28 01:39:32;;;;;;;19.08;10.00;;;;;;;8.11;49.35;99639.53;4370353;32;34352;-90
2023/04/28 01:42:01;;;;;;;18.52;11.18;;;;;;;8.13;49.54;99630.97;4356341;32;33144;-90
2023/04/28 01:44:28;;;;;;;16.70;11.52;;;;;;;7.94;49.91;99639.00;4363067;32;34725;-84
2023/04/28 01:46:56;;;;;;;19.65;9.98;;;;;;;7.86;50.37;99630.16;4372200;32;34082;-93
2023/04/28 01:49:24;;;;;;;18.58;11.60;;;;;;;7.89;50.40;99630.25;4365102;32;33909;-87
2023/04/28 01:51:51;;;;;;;16.27;10.18;;;;;;;7.75;50.79;99633.25;4353231;32;34931;-91
2023/04/28 01:54:19;;;;;;;19.12;9.88;;;;;;;7.72;51.91;99628.00;4362934;32;34275;-85
2023/04/28 01:56:49;;;;;;;18.85;10.88;;;;;;;7.66;52.33;99632.12;4363530;32;34159;-93
2023/04/28 01:59:19;;;;;;;18.10;10.43;;;;;;;7.86;51.18;99638.78;4366946;32;33349;-84
2023/04/28 02:01:46;;;;;;;16.92;8.70;;;;;;;7.85;51.06;99638.72;4365251;32;34083;-89
2023/04/28 02:04:16;;;;;;;14.13;9.80;;;;;;;7.85;50.53;99639.59;4353376;32;33635;-91
2023/04/28 02:06:44;;;;;;;13.50;8.93;;;;;;;7.76;50.24;99629.84;4364652;32;34230;-91
2023/04/28 02:09:12;;;;;;;15.07;7.30;;;;;;;7.85;50.31;99639.59;4373996;32;33335;-88
2023/04/28 02:11:40;;;;;;;13.65;7.25;;;;;;;7.88;50.05;99636.22;4365795;32;34294;-91
2023/04/28 02:14:07;;;;;;;13.50;7.53;;;;;;;7.83;49.28;99635.22;4362648;32;34116;-90
2023/04/28 02:16:34;;;;;;;18.50;7.60;;;;;;;8.18;48.34;99637.19;4371122;32;35018;-92
2023/04/28 02:19:02;;;;;;;12.60;7.47;;;;;;;7.84;48.93;99639.53;4366691;32;34616;-89
2023/04/28 02:21:30;;;;;;;15.68;7.53;;;;;;;7.85;49.08;99638.72;4367248;32;33830;-84
2023/04/28 02:23:58;;;;;;;13.60;7.93;;;;;;;7.73;49.05;99637.53;4364551;32;33712;-95
2023/04/28 02:26:27;;;;;;;14.48;8.10;;;;;;;7.79;48.91;99641.97;4374178;32;34123;-88
2023/04/28 02:28:55;;;;;;;11.48;7.12;;;;;;;7.72;49.26;99647.78;4362625;32;33677;-90
2023/04/28 02:31:22;;;;;;;15.50;7.65;;;;;;;7.83;48.98;99640.38;4365308;32;33420;-93
2023/04/28 02:33:53;;;;;;;14.32;8.10;;;;;;;7.81;49.14;99645.50;4363065;32;34186;-86
2023/04/28 02:36:22;;;;;;;14.68;7.65;;;;;;;7.77;49.30;99644.53;4369237;32;34852;-85
2023/04/28 02:38:50;;;;;;;15.23;8.10;;;;;;;7.84;49.35;99642.13;4365536;32;33166;-84
2023/04/28 02:41:17;;;;;;;11.65;7.50;;;;;;;7.71;49.74;99646.03;4372016;32;33845;-94
2023/04/28 02:43:45;;;;;;;10.73;7.15;;;;;;;7.76;49.36;99640.16;4356644;32;35058;-84
2023/04/28 02:46:12;;;;;;;15.98;8.57;;;;;;;7.68;49.13;99651.97;4363812;32;34237;-89
2023/04/28 02:48:41;;;;;;;13.43;7.90;;;;;;;7.73;49.21;99653.00;4363943;32;36242;-88
2023/04/28 02:51:12;;;;;;;14.18;8.10;;;;;;;7.67;49.29;99647.62;4363809;32;33686;-85
2023/04/28 02:53:40;;;;;;;11.73;8.07;;;;;;;7.66;49.55;99651.06;4364066;32;34186;-87
2023/04/28 02:56:09;;;;;;;14.60;8.10;;;;;;;7.57;49.56;99646.44;4363116;32;34265;-94
2023/04/28 02:58:37;;;;;;;17.33;8.30;;;;;;;7.55;49.76;99642.09;4360901;32;33649;-84
2023/04/28 03:01:06;;;;;;;14.30;8.55;;;;;;;7.61;49.58;99642.25;4366752;32;34048;-92
2023/04/28 03:03:34;;;;;;;13.18;8.30;;;;;;;7.65;49.50;99649.31;4362594;32;33289;-94
2023/04/28 03:06:02;;;;;;;11.12;7.47;;;;;;;7.56;49.66;99654.16;4363719;32;34188;-93
2023/04/28 03:08:29;;;;;;;12.55;7.50;;;;;;;7.58;49.36;99649.94;4363593;32;33218;-86
2023/04/28 03:10:57;;;;;;;9.40;7.15;;;;;;;7.52;49.55;99650.59;4364227;32;33805;-94
2023/04/28 03:13:24;;;;;;;10.30;6.35;;;;;;;7.54;49.18;99648.97;4365465;32;33754;-93
2023/04/28 03:15:52;;;;;;;11.50;6.40;;;;;;;7.53;49.21;99651.47;4365269;32;33831;-94
2023/04/28 03:18:21;;;;;;;13.02;7.32;;;;;;;7.45;49.45;99653.78;4361052;32;34343;-94
2023/04/28 03:20:49;;;;;;;13.05;6.60;;;;;;;7.45;50.00;99652.94;4364158;32;33228;-91
2023/04/28 03:23:16;;;;;;;11.40;6.82;;;;;;;7.52;49.63;99649.72;4347383;32;35036;-92
2023/04/28 03:25:44;;;;;;;11.07;6.85;;;;;;;7.50;49.39;99648.78;4368004;32;33926;-94
2023/04/28 03:28:12;;;;;;;11.95;6.40;;;;;;;7.42;49.86;99647.66;4363444;32;35355;-90
2023/04/28 03:30:39;;;;;;;13.62;7.60;;;;;;;7.58;49.02;99642.19;4350091;32;33860;-86
2023/04/28 03:33:07;;;;;;;10.60;7.12;;;;;;;7.49;49.22;99649.63;4363054;32;33969;-92
2023/04/28 03:35:34;;;;;;;13.25;7.28;;;;;;;7.48;49.16;99651.31;4370593;32;34627;-86
2023/04/28 03:38:02;;;;;;;10.55;6.75;;;;;;;7.61;49.10;99660.31;4365413;32;33376;-91
2023/04/28 03:40:31;;;;;;;11.07;7.32;;;;;;;7.49;49.91;99654.78;4370443;32;34415;-91
2023/04/28 03:43:02;;;;;;;12.18;6.85;;;;;;;7.48;50.30;99650.47;4363739;32;34138;-83
2023/04/28 03:45:32;;;;;;;14.80;7.72;;;;;;;7.53;50.16;99651.47;4362208;32;33857;-94
2023/04/28 03:48:00;;;;;;;12.15;6.37;;;;;;;7.67;49.77;99650.22;4348064;32;34614;-88
2023/04/28 03:50:28;;;;;;;13.27;6.80;;;;;;;7.73;49.36;99649.56;4360768;32;33642;-94
2023/04/28 03:52:56;;;;;;;11.60;7.12;;;;;;;7.71;49.38;99653.78;4365560;32;35017;-91
2023/04/28 03:55:24;;;;;;;10.02;6.75;;;;;;;7.76;49.83;99655.66;4364440;32;34094;-85
2023/04/28 03:57:52;;;;;;;14.77;7.60;;;;;;;7.76;50.76;99649.63;4362292;32;33430;-91
2023/04/28 04:00:20;;;;;;;11.43;7.32;;;;;;;7.70;51.31;99652.91;4363958;32;33621;-95
2023/04/28 04:02:47;;;;;;;10.38;6.37;;;;;;;8.03;50.64;99655.66;4365435;32;33981;-91
2023/04/28 04:05:15;;;;;;;13.52;7.35;;;;;;;8.02;50.69;99653.03;4372818;32;34201;-91
2023/04/28 04:07:43;;;;;;;12.18;7.20;;;;;;;8.08;50.87;99660.97;4375605;32;33163;-91
2023/04/28 04:10:11;;;;;;;9.57;6.43;;;;;;;8.11;50.84;99667.94;4372001;32;34509;-85
2023/04/28 04:12:39;;;;;;;10.93;6.55;;;;;;;8.23;50.87;99669.19;4365168;32;34118;-94
2023/04/28 04:15:07;;;;;;;12.15;7.07;;;;;;;8.35;50.67;99672.97;4362931;32;34109;-85
2023/04/28 04:17:35;;;;;;;9.93;6.87;;;;;;;8.34;50.55;99674.66;4367767;32;33593;-88
2023/04/28 04:20:03;;;;;;;11.93;7.25;;;;;;;8.45;50.75;99675.03;4367881;32;34504;-95
2023/04/28 04:22:30;;;;;;;12.50;6.90;;;;;;;8.48;50.84;99675.97;4363022;32;34304;-93
2023/04/28 04:24:58;;;;;;;11.48;7.25;;;;;;;8.73;50.08;99669.78;4363020;32;34989;-94
2023/04/28 04:27:26;;;;;;;10.48;6.03;;;;;;;9.41;49.08;99666.44;4365193;32;33928;-87
2023/04/28 04:29:53;;;;;;;10.45;6.82;;;;;;;9.45;48.53;99671.72;4368213;32;33618;-83
2023/04/28 04:32:21;;;;;;;11.00;5.85;;;;;;;9.84;47.56;99668.34;4370511;32;32769;-94
2023/04/28 04:34:49;;;;;;;11.12;6.30;;;;;;;10.50;46.09;99669.00;4366917;32;34184;-83
2023/04/28 04:37:18;;;;;;;12.23;5.90;;;;;;;10.64;45.37;99658.03;4363578;32;33699;-91
2023/04/28 04:39:46;;;;;;;11.45;5.75;;;;;;;10.99;45.08;99655.28;4353814;32;33774;-83
2023/04/28 04:42:14;;;;;;;8.27;5.37;;;;;;;11.11;44.57;99655.50;4376485;32;34202;-91
2023/04/28 04:44:52;;;;;;;11.73;5.45;;;;;;;11.60;43.90;99656.38;4368095;32;34118;-93
2023/04/28 04:47:21;;;;;;;9.13;5.68;;;;;;;12.10;43.27;99653.69;4364955;32;34813;-91
2023/04/28 04:49:50;;;;;;;11.82;5.32;;;;;;;12.35;42.69;99661.81;4362896;32;32664;-90
2023/04/28 04:52:17;;;;;;;10.13;6.28;;;;;;;12.77;41.02;99658.03;4365397;32;34286;-87
2023/04/28 04:54:45;;;;;;;10.88;5.97;;;;;;;12.95;39.17;99660.81;4368897;32;34061;-82
2023/04/28 04:57:13;;;;;;;10.15;5.72;;;;;;;12.91;40.89;99666.84;4375954;32;33584;-88
2023/04/28 04:59:42;;;;;;;10.68;6.18;;;;;;;12.77;40.65;99666.72;4355958;32;33281;-95
2023/04/28 05:02:11;;;;;;;10.65;5.93;;;;;;;12.97;40.56;99664.34;4362811;32;35006;-87
2023/04/28 05:04:38;;;;;;;10.65;6.43;;;;;;;12.93;40.60;99665.16;4376224;32;34069;-91
2023/04/28 05:07:07;;;;;;;12.35;6.47;;;;;;;12.98;40.17;99662.59;4370199;32;33744;-92
2023/04/28 05:09:38;;;;;;;12.88;6.75;;;;;;;13.07;39.14;99658.37;4366528;32;34174;-83
2023/04/28 05:12:05;;;;;;;11.65;6.82;;;;;;;12.90;39.34;99659.91;4362993;32;33718;-92
2023/04/28 05:14:33;;;;;;;15.88;7.00;;;;;;;12.57;38.55;99666.44;4363722;32;34824;-84
2023/04/28 05:17:01;;;;;;;15.10;8.00;;;;;;;12.74;38.26;99664.06;4359813;32;34304;-82
2023/04/28 05:19:30;;;;;;;15.95;7.05;;;;;;;12.39;39.36;99667.09;4376094;32;34454;-95
2023/04/28 05:21:59;;;;;;;13.20;7.43;;;;;;;12.65;40.48;99669.12;4371857;32;35247;-83
2023/04/28 05:24:27;;;;;;;13.00;7.07;;;;;;;13.35;38.79;99663.88;4374148;32;34174;-82
2023/04/28 05:26:57;;;;;;;11.35;6.75;;;;;;;13.53;38.33;99666.66;4358936;32;34300;-87
2023/04/28 05:29:25;;;;;;;13.25;6.85;;;;;;;13.02;37.06;99670.44;4370255;32;35346;-96
2023/04/28 05:31:53;;;;;;;11.68;6.05;;;;;;;12.79;37.36;99666.72;4372448;32;35227;-96
2023/04/28 05:34:21;;;;;;;14.93;5.82;;;;;;;12.46;37.33;99669.75;4372473;32;34063;-90
2023/04/28 05:36:50;;;;;;;10.40;6.00;;;;;;;12.09;37.35;99667.53;4358592;32;33530;-96
2023/04/28 05:39:18;;;;;;;8.95;5.62;;;;;;;12.49;37.77;99672.41;4358466;32;34437;-96
2023/04/28 05:41:46;;;;;;;11.00;5.82;;;;;;;12.51;38.97;99671.59;4380455;32;33740;-89
2023/04/28 05:44:14;;;;;;;8.98;5.25;;;;;;;12.82;38.75;99666.75;4384279;32;34274;-94
2023/04/28 05:46:41;;;;;;;9.48;5.22;;;;;;;12.42;36.68;99674.03;4381747;32;33699;-95
2023/04/28 05:49:09;;;;;;;9.23;4.45;;;;;;;12.16;37.03;99669.38;4384079;32;35234;-88
2023/04/28 05:51:38;;;;;;;8.13;5.32;;;;;;;11.64;38.17;99681.53;4380504;32;35246;-89
2023/04/28 05:54:06;;;;;;;10.10;5.32;;;;;;;11.94;38.88;99680.31;4384921;32;34651;-84
2023/04/28 05:56:34;;;;;;;13.62;5.50;;;;;;;12.15;37.88;99680.63;4388046;32;33188;-89
2023/04/28 05:59:03;;;;;;;8.77;5.12;;;;;;;12.27;38.30;99673.84;4372920;32;34176;-89
2023/04/28 06:01:31;;;;;;;12.75;5.37;;;;;;;12.52;38.20;99683.72;4374042;32;34126;-85
2023/04/28 06:03:58;;;;;;;9.68;5.72;;;;;;;12.27;38.44;99673.84;4385484;32;34952;-88
2023/04/28 06:06:26;;;;;;;11.20;5.55;;;;;;;12.41;37.65;99682.72;4386635;32;33826;-83
2023/04/28 06:08:54;;;;;;;15.20;6.47;;;;;;;11.98;38.62;99686.44;4385099;32;33546;-84
2023/04/28 06:11:22;;;;;;;14.65;7.43;;;;;;;12.17;39.69;99688.44;4388646;32;34407;-84
2023/04/28 06:13:50;;;;;;;16.62;6.90;;;;;;;11.71;40.78;99692.03;4374773;32;32952;-83
2023/04/28 06:16:17;;;;;;;15.65;7.18;;;;;;;11.94;41.22;99685.50;4385617;32;34479;-83
2023/04/28 06:18:46;;;;;;;10.90;6.40;;;;;;;11.74;41.23;99694.66;4385735;32;33762;-89
2023/04/28 06:21:16;;;;;;;8.20;5.93;;;;;;;12.01;40.60;99694.25;4386504;32;34271;-87
2023/04/28 06:23:43;;;;;;;14.70;6.57;;;;;;;11.81;39.73;99693.91;4386336;32;34515;-96
2023/04/28 06:26:11;;;;;;;16.23;5.97;;;;;;;11.96;39.73;99691.59;4372802;32;34541;-94
2023/04/28 06:28:39;;;;;;;10.48;5.75;;;;;;;12.11;39.76;99693.53;4384290;32;33486;-83
2023/04/28 06:31:07;;;;;;;12.00;5.20;;;;;;;12.24;39.55;99692.03;4373820;32;33475;-84
2023/04/28 06:33:35;;;;;;;12.45;5.65;;;;;;;12.48;39.24;99694.94;4370499;32;34122;-94
2023/04/28 06:36:03;;;;;;;11.48;5.62;;;;;;;12.39;38.51;99694.84;4358329;32;33858;-92
2023/04/28 06:38:30;;;;;;;10.93;5.75;;;;;;;12.57;38.76;99692.47;4374274;32;33584;-93
2023/04/28 06:40:58;;;;;;;10.15;4.85;;;;;;;12.31;37.83;99691.22;4372631;32;33980;-88
2023/04/28 06:43:26;;;;;;;10.02;5.50;;;;;;;12.44;37.94;99700.97;4372084;32;33987;-95
2023/04/28 06:45:56;;;;;;;14.52;5.90;;;;;;;12.38;38.40;99695.66;4386833;32;33876;-88
2023/04/28 06:48:25;;;;;;;9.50;5.20;;;;;;;12.14;39.20;99693.59;4387810;32;34178;-84
2023/04/28 06:50:52;;;;;;;14.48;6.50;;;;;;;12.34;38.67;99699.06;4388337;32;34259;-96
2023/04/28 06:53:21;;;;;;;11.98;5.40;;;;;;;12.49;38.57;99695.81;4386952;32;34331;-94
2023/04/28 06:55:49;;;;;;;11.02;6.90;;;;;;;12.44;38.83;99695.75;4387358;32;33611;-85
2023/04/28 06:58:16;;;;;;;14.65;7.20;;;;;;;12.30;39.59;99707.69;4368274;32;104215;-84
2023/04/28 07:00:44;;;;;;;13.30;6.75;;;;;;;12.65;38.95;99700.34;4386649;32;33977;-95
2023/04/28 07:03:12;;;;;;;14.38;6.87;;;;;;;12.97;39.93;99690.34;4387494;32;34115;-94
2023/04/28 07:05:39;;;;;;;14.18;6.87;;;;;;;13.02;38.82;99687.81;4383936;32;33532;-95
2023/04/28 07:08:07;;;;;;;15.02;7.72;;;;;;;13.14;39.21;99681.03;4385019;32;34343;-88
2023/04/28 07:10:35;;;;;;;11.05;7.28;;;;;;;13.12;39.05;99677.50;4367307;32;34075;-88
2023/04/28 07:13:02;;;;;;;12.05;7.60;;;;;;;13.12;39.00;99693.12;4367712;32;32993;-83
2023/04/28 07:15:30;;;;;;;13.43;6.75;;;;;;;13.29;39.86;99685.50;4365409;32;35276;-96
2023/04/28 07:17:58;;;;;;;16.90;7.43;;;;;;;13.00;39.21;99693.00;4367370;32;33819;-84
2023/04/28 07:20:26;;;;;;;15.77;6.82;;;;;;;13.33;38.54;99689.03;4367886;32;33979;-84
2023/04/28 07:22:54;;;;;;;17.75;7.82;;;;;;;13.73;38.33;99686.81;4367160;32;34670;-92
2023/04/28 07:25:22;;;;;;;13.45;8.00;;;;;;;13.58;39.01;99687.53;4365303;32;34297;-84
2023/04/28 07:27:49;;;;;;;10.80;6.50;;;;;;;13.25;39.90;99688.06;4356651;32;33820;-94
2023/04/28 07:30:17;;;;;;;13.95;7.00;;;;;;;13.39;39.29;99691.69;4366864;32;33787;-84
2023/04/28 07:32:55;;;;;;;12.40;6.95;;;;;;;13.60;38.81;99691.03;4363443;32;34155;-96
2023/04/28 07:35:23;;;;;;;14.90;8.10;;;;;;;13.49;37.69;99683.13;4362354;32;33621;-96
2023/04/28 07:37:51;;;;;;;13.62;7.28;;;;;;;13.49;38.08;99688.34;4349233;32;34773;-83
2023/04/28 07:40:19;;;;;;;13.48;7.35;;;;;;;13.57;37.80;99684.06;4363323;32;35227;-95
2023/04/28 07:42:46;;;;;;;13.98;7.10;;;;;;;14.16;37.30;99682.75;4363936;32;33942;-88
2023/04/28 07:45:15;;;;;;;14.45;6.47;;;;;;;13.73;37.26;99678.97;4362285;32;33629;-94
2023/04/28 07:47:42;;;;;;;13.50;6.25;;;;;;;13.70;36.10;99681.56;4336416;32;32823;-96
2023/04/28 07:50:10;;;;;;;14.82;7.05;;;;;;;13.93;36.13;99674.78;4362194;32;33985;-96
2023/04/28 07:52:38;;;;;;;12.30;5.78;;;;;;;14.26;35.97;99673.28;4349748;32;34321;-93
2023/04/28 07:55:06;;;;;;;13.27;7.05;;;;;;;14.40;34.87;99671.63;4350652;32;34622;-95
2023/04/28 07:57:34;;;;;;;12.18;5.80;;;;;;;14.03;35.83;99662.69;4360407;32;33684;-84
2023/04/28 08:00:02;;;;;;;13.68;5.75;;;;;;;14.28;35.32;99653.28;4366251;32;33380;-84
2023/04/28 08:02:37;;;;;;;;;;;;;;;14.13;34.97;99656.69;4364856;32;34216;-92
2023/04/28 08:05:07;;;;;;;15.45;7.00;;;;;;;14.33;34.10;99652.44;4374204;32;35202;-93
2023/04/28 08:07:36;;;;;;;16.52;7.50;;;;;;;14.61;34.28;99652.59;4362810;32;34893;-95
2023/04/28 08:10:04;;;;;;;12.32;7.32;;;;;;;14.21;34.96;99656.75;4363259;32;34084;-96
2023/04/28 08:12:31;;;;;;;17.30;7.85;;;;;;;14.16;35.21;99646.25;4361786;32;35255;-83
2023/04/28 08:14:59;;;;;;;11.00;8.40;;;;;;;14.12;35.76;99642.75;4361840;32;33619;-92
2023/04/28 08:17:26;;;;;;;20.15;8.30;;;;;;;14.47;36.68;99634.28;4362260;32;33861;-83
2023/04/28 08:19:54;;;;;;;16.25;6.90;;;;;;;14.67;36.37;99623.06;4364176;32;34007;-96
2023/04/28 08:22:22;;;;;;;17.40;7.43;;;;;;;13.97;35.09;99639.19;4362196;32;33938;-96
2023/04/28 08:24:49;;;;;;;13.62;6.57;;;;;;;14.16;35.49;99630.63;4361947;32;33268;-91
2023/04/28 08:27:17;;;;;;;13.05;5.93;;;;;;;14.44;34.95;99626.44;4362610;32;34331;-86
2023/04/28 08:29:44;;;;;;;11.45;6.10;;;;;;;14.62;33.40;99620.41;4368807;32;34107;-91
2023/04/28 08:32:12;;;;;;;16.05;6.43;;;;;;;14.58;33.59;99629.09;4376645;32;34391;-96
2023/04/28 08:34:39;;;;;;;14.63;5.65;;;;;;;15.06;34.16;99623.16;4376452;32;33814;-94
2023/04/28 08:37:07;;;;;;;11.57;6.05;;;;;;;15.25;32.18;99623.19;4375960;32;34893;-95
2023/04/28 08:39:34;;;;;;;16.20;6.40;;;;;;;15.34;33.32;99617.97;4378605;32;34086;-96
2023/04/28 08:42:06;;;;;;;12.63;5.82;;;;;;;15.23;33.76;99619.72;4377361;32;33889;-83
2023/04/28 08:44:38;;;;;;;9.38;5.50;;;;;;;15.27;33.56;99613.63;4364048;32;33513;-83
2023/04/28 08:47:12;;;;;;;20.60;6.90;;;;;;;15.39;33.07;99613.63;4380653;32;33843;-91
2023/04/28 08:49:40;;;;;;;12.27;5.78;;;;;;;14.84;34.65;99617.00;4379661;32;34501;-95
2023/04/28 08:52:12;;;;;;;11.68;5.07;;;;;;;15.30;34.03;99605.78;4383320;32;34800;-92
2023/04/28 08:54:40;;;;;;;9.55;4.93;;;;;;;15.25;33.40;99607.53;4366733;32;33320;-94
2023/04/28 08:57:09;;;;;;;9.63;5.12;;;;;;;15.37;32.56;99599.69;4378777;32;34606;-89
2023/04/28 08:59:40;;;;;;;13.18;4.70;;;;;;;15.72;33.61;99604.94;4379996;32;34589;-83
2023/04/28 09:02:08;;;;;;;10.80;5.10;;;;;;;15.56;31.64;99604.03;4384401;32;35073;-84
2023/04/28 09:04:35;;;;;;;12.37;5.03;;;;;;;14.99;32.89;99597.91;4365255;32;33621;-95
2023/04/28 09:07:09;;;;;;;9.90;4.32;;;;;;;15.48;32.82;99604.91;4384055;32;33720;-96
2023/04/28 09:09:39;;;;;;;6.65;3.25;;;;;;;15.24;31.26;99603.19;4376220;32;33745;-95
2023/04/28 09:12:07;;;;;;;10.27;4.93;;;;;;;15.58;30.65;99606.66;4369389;32;34707;-81
2023/04/28 09:14:36;;;;;;;9.90;3.90;;;;;;;15.12;30.78;99611.00;4379357;32;33792;-96
2023/04/28 09:17:12;;;;;;;10.77;4.07;;;;;;;15.49;30.70;99612.78;4379663;32;33657;-84
2023/04/28 09:19:41;;;;;;;9.18;4.05;;;;;;;16.00;30.76;99600.53;4360433;32;33630;-95
2023/04/28 09:22:10;;;;;;;8.85;3.55;;;;;;;15.81;30.53;99618.00;4350233;32;34293;-95
2023/04/28 09:24:54;;;;;;;10.02;3.20;;;;;;;15.80;29.87;99610.16;4363175;32;33781;-87
2023/04/28 09:27:26;;;;;;;8.60;3.58;;;;;;;16.05;29.34;99614.47;4364787;32;33824;-96
2023/04/28 09:29:54;;;;;;;7.45;3.65;;;;;;;16.13;27.11;99606.59;4351626;32;34784;-94
2023/04/28 09:32:23;;;;;;;9.00;4.07;;;;;;;15.99;29.11;99609.25;4363746;32;34266;-96
2023/04/28 09:34:55;;;;;;;12.95;3.15;;;;;;;16.32;29.42;99604.78;4363204;32;33600;-84
2023/04/28 09:37:25;;;;;;;8.15;3.28;;;;;;;16.63;28.94;99602.03;4363310;32;34678;-84
2023/04/28 09:39:54;;;;;;;10.35;3.45;;;;;;;16.95;28.55;99605.41;4362534;32;34443;-84
2023/04/28 09:42:41;;;;;;;10.00;3.45;;;;;;;17.44;28.57;99599.81;4363418;32;34038;-83
2023/04/28 09:45:10;;;;;;;9.30;3.17;;;;;;;17.47;27.30;99594.56;4370948;32;33198;-95
2023/04/28 09:47:45;;;;;;;12.98;3.08;;;;;;;17.61;28.13;99590.94;4365625;32;33906;-94
2023/04/28 09:50:16;;;;;;;8.50;3.30;;;;;;;17.71;27.33;99597.84;4377761;32;33735;-93
2023/04/28 09:52:55;;;;;;;7.40;3.28;;;;;;;18.03;26.85;99583.56;4377855;32;33997;-91
2023/04/28 09:55:23;;;;;;;11.02;3.08;;;;;;;18.18;26.91;99583.38;4380683;32;34538;-96
2023/04/28 09:57:53;;;;;;;8.02;3.05;;;;;;;17.63;26.47;99582.19;4377962;32;34054;-88
2023/04/28 10:00:21;;;;;;;9.90;3.45;;;;;;;17.64;27.42;99590.91;4351343;32;32629;-86
2023/04/28 10:02:50;;;;;;;8.80;3.37;;;;;;;17.36;26.70;99579.81;4360488;32;33817;-84
2023/04/28 10:05:18;;;;;;;10.25;3.30;;;;;;;16.83;27.77;99579.28;4352511;32;33482;-94
2023/04/28 10:07:46;;;;;;;8.85;3.30;;;;;;;17.30;26.51;99570.22;4355977;32;35473;-90
2023/04/28 10:10:14;;;;;;;10.23;3.40;;;;;;;16.95;26.88;99571.34;4377355;32;34609;-95
2023/04/28 10:12:42;;;;;;;7.40;3.20;;;;;;;17.31;26.98;99564.09;4380567;32;34926;-82
2023/04/28 10:15:12;;;;;;;13.45;4.37;;;;;;;16.64;28.10;99561.94;4379880;32;33184;-84
2023/04/28 10:17:39;;;;;;;7.32;4.35;;;;;;;16.75;27.83;99560.16;4377588;32;34176;-84
2023/04/28 10:20:07;;;;;;;9.38;4.35;;;;;;;16.89;28.59;99560.03;4377287;32;34205;-92
2023/04/28 10:23:05;;;;;;;10.20;4.28;;;;;;;17.12;28.05;99552.03;4379533;32;34596;-92
2023/04/28 10:25:35;;;;;;;9.27;3.70;;;;;;;17.37;29.04;99556.19;4351806;32;32920;-96
2023/04/28 10:28:07;;;;;;;9.45;4.10;;;;;;;17.88;28.26;99542.59;4377410;32;33712;-93
2023/04/28 10:30:36;;;;;;;7.45;3.55;;;;;;;18.11;26.65;99529.25;4378970;32;33856;-94
2023/04/28 10:33:08;;;;;;;13.70;3.45;;;;;;;17.88;27.05;99530.41;4371996;32;33880;-96
2023/04/28 10:35:46;;;;;;;7.87;3.70;;;;;;;18.24;26.94;99533.47;4366339;32;33547;-96
2023/04/28 10:38:15;;;;;;;7.87;2.90;;;;;;;17.62;28.26;99520.16;4365674;32;33971;-89
2023/04/28 10:40:43;;;;;;;8.55;5.85;;;;;;;17.87;28.08;99512.91;4336743;32;33881;-83
2023/04/28 10:43:12;;;;;;;13.02;3.45;;;;;;;18.08;28.03;99513.56;4362755;32;34506;-91
2023/04/28 10:45:52;;;;;;;8.88;3.42;;;;;;;17.97;26.81;99511.91;4348614;32;33803;-84
2023/04/28 10:48:45;;;;;;;9.18;3.25;;;;;;;17.85;27.13;99514.69;4363601;32;33958;-94
2023/04/28 10:51:21;;;;;;;7.50;3.22;;;;;;;17.44;27.50;99515.94;4363212;32;33831;-88
2023/04/28 10:53:51;;;;;;;6.65;3.20;;;;;;;17.44;28.66;99501.97;4362372;32;34613;-87
2023/04/28 10:56:26;;;;;;;8.68;3.08;;;;;;;17.56;27.02;99498.34;4373834;32;33555;-96
2023/04/28 10:58:58;;;;;;;6.97;2.67;;;;;;;17.21;27.00;99499.56;4378123;32;33379;-92
2023/04/28 11:01:33;;;;;;;6.10;3.00;;;;;;;16.85;27.17;99498.97;4367670;32;34965;-92
2023/04/28 11:04:14;;;;;;;10.38;3.03;;;;;;;16.78;28.56;99492.94;4349298;32;34244;-89
2023/04/28 11:06:44;;;;;;;10.48;2.67;;;;;;;17.22;27.48;99493.44;4361717;32;33531;-95
2023/04/28 11:09:21;;;;;;;6.30;2.53;;;;;;;17.83;27.80;99486.72;4361489;32;34758;-95
2023/04/28 11:12:01;;;;;;;9.75;3.08;;;;;;;17.88;28.42;99482.28;4361808;32;34024;-95
2023/04/28 11:14:32;;;;;;;6.78;3.10;;;;;;;17.88;27.07;99485.81;4362338;32;34748;-95
2023/04/28 11:17:01;;;;;;;6.90;2.95;;;;;;;17.70;26.75;99480.72;4361494;32;33578;-84
2023/04/28 11:19:32;;;;;;;12.50;4.57;;;;;;;18.09;27.29;99475.91;4361701;32;33835;-93
2023/04/28 11:22:01;;;;;;;7.60;2.90;;;;;;;18.05;27.93;99467.22;4348396;32;34145;-94
2023/04/28 11:24:31;;;;;;;8.55;3.03;;;;;;;18.19;28.67;99464.44;4348795;32;35288;-96
2023/04/28 11:26:59;;;;;;;9.48;3.50;;;;;;;17.91;27.53;99464.75;4350676;32;34352;-96
2023/04/28 11:29:30;;;;;;;13.52;3.28;;;;;;;17.88;27.29;99462.19;4362684;32;33940;-93
2023/04/28 11:31:58;;;;;;;8.18;2.72;;;;;;;17.71;27.78;99482.47;4361142;32;33776;-89
2023/04/28 11:34:26;;;;;;;8.60;3.00;;;;;;;17.79;27.89;99472.78;4350536;32;34244;-95
2023/04/28 11:36:54;;;;;;;7.60;3.35;;;;;;;17.80;27.88;99485.00;4363512;32;33404;-95
2023/04/28 11:39:29;;;;;;;6.87;2.80;;;;;;;17.20;28.01;99479.50;4349924;32;33687;-92